Latest Weather Observations for Ernabella/Pukatja

IDS60801

Issued at 11:41 am CST Thursday 25 April 2024 (issued every 10 minutes, with the page automatically refreshed every 10 minutes)

About weather observations | Map of weather stations | Latest weather observations for SA | Other Formats
Station Details ID: 016097 Name: PUKATJA Lat: -26.26 Lon: 132.18 Height: 703.2 m
Data from the previous 72 hours. | See also: Recent months at Ernabella/Pukatja
Date/Time
CST
Temp
°C
App
Temp
°C
Dew
Point
°C
Rel
Hum
%
Delta-T
°C
Wind Press
QNH
hPa
Press
MSL
hPa
Rain since
9am
mm
Dir  Spd
km/h
Gust
km/h
Spd
kts
Gust
kts
25/11:30am 17.2 12.1 0.8 33 7.4 ESE 17 28 9 15 1027.7 1024.6 0.0
25/11:00am 16.2 10.5 0.7 35 7.0 ESE 20 28 11 15 1028.1 1025.1 0.0
25/10:30am 15.2 9.4 0.2 36 6.6 ESE 20 32 11 17 1028.4 1025.4 0.0
25/10:00am 14.5 8.8 0.4 38 6.2 ESE 20 30 11 16 1028.4 1025.4 0.0
25/09:30am 13.7 7.5 0.0 39 5.9 ESE 22 32 12 17 1028.7 1025.7 0.0
25/09:00am 12.9 7.4 0.3 42 5.4 ESE 19 26 10 14 1028.6 1025.6 0.0
25/08:30am 11.9 6.2 0.4 45 4.9 ESE 20 26 11 14 1028.2 1025.2 0.0
25/08:00am 10.3 4.6 0.3 50 4.2 ESE 20 28 11 15 1028.1 1025.1 0.0
25/07:30am 10.0 5.3 0.6 52 4.0 SE 15 19 8 10 1027.7 1024.6 0.0
25/07:00am 9.6 4.8 0.2 52 4.0 SE 15 26 8 14 1027.4 1024.4 0.0
25/06:30am 9.8 4.6 -0.1 50 4.1 ESE 17 24 9 13 1027.0 1024.0 0.0
25/06:00am 9.7 4.0 -0.5 49 4.2 ESE 19 24 10 13 1026.9 1023.9 0.0
25/05:30am 10.0 4.3 -0.5 48 4.3 ESE 19 26 10 14 1026.7 1023.7 0.0
25/05:00am 10.0 4.3 -0.5 48 4.4 ESE 19 26 10 14 1026.5 1023.4 0.0
25/04:30am 10.6 4.7 -0.5 46 4.6 ESE 20 28 11 15 1026.3 1023.2 0.0
25/04:00am 10.7 4.8 -1.0 44 4.8 ESE 20 30 11 16 1025.9 1022.9 0.0
25/03:30am 10.9 4.9 -1.5 42 5.0 SE 20 30 11 16 1026.3 1023.2 0.0
25/03:00am 11.3 5.3 -1.5 41 5.2 ESE 20 30 11 16 1026.1 1023.0 0.0
25/02:30am 11.8 5.8 -1.7 39 5.5 ESE 20 32 11 17 1026.2 1023.1 0.0
25/02:00am 12.3 5.5 -1.6 38 5.8 SE 24 33 13 18 1026.4 1023.3 0.0
25/01:30am 12.4 6.5 -1.1 39 5.6 SE 20 28 11 15 1026.4 1023.3 0.0
25/01:00am 12.7 6.4 -0.9 39 5.7 ESE 22 33 12 18 1026.4 1023.3 0.0
25/12:30am 13.2 7.0 -0.1 40 5.7 ESE 22 30 12 16 1026.5 1023.4 0.0
25/12:00am 13.5 7.0 0.2 40 5.8 ESE 24 33 13 18 1026.5 1023.4 0.0
 
Date/Time
CST
Temp
°C
App
Temp
°C
Dew
Point
°C
Rel
Hum
%
Delta-T
°C
Wind Press
QNH
hPa
Press
MSL
hPa
Rain since
9am
mm
Dir  Spd
km/h
Gust
km/h
Spd
kts
Gust
kts
24/11:30pm 13.9 7.8 0.5 40 5.9 SE 22 28 12 15 1026.6 1023.5 0.0
24/11:00pm 14.2 8.2 0.8 40 6.0 SE 22 32 12 17 1026.9 1023.9 0.0
24/10:30pm 14.8 8.3 0.6 38 6.3 SE 24 35 13 19 1027.0 1024.0 0.0
24/10:00pm 15.5 10.0 0.9 37 6.6 SE 19 28 10 15 1027.1 1024.1 0.0
24/09:30pm 16.0 10.4 1.3 37 6.7 SE 20 30 11 16 1027.1 1024.1 0.0
24/09:00pm 16.5 11.6 2.2 38 6.6 SE 17 22 9 12 1026.9 1023.9 0.0
24/08:30pm 17.0 11.8 2.2 37 6.9 SE 19 26 10 14 1026.4 1023.3 0.0
24/08:00pm 17.7 12.9 2.5 36 7.2 SE 17 24 9 13 1026.1 1023.0 0.0
24/07:30pm 18.0 13.2 2.7 36 7.3 SE 17 28 9 15 1025.7 1022.7 0.0
24/07:00pm 18.7 13.5 2.5 34 7.7 SE 19 28 10 15 1025.3 1022.2 0.0
24/06:30pm 19.4 14.1 3.2 34 7.8 ESE 20 28 11 15 1025.0 1021.9 0.0
24/06:00pm 20.1 14.9 3.3 33 8.2 ESE 20 28 11 15 1024.4 1021.4 0.0
24/05:30pm 20.9 15.9 3.6 32 8.5 SE 19 26 10 14 1024.2 1021.2 0.0
24/05:00pm 21.7 16.6 3.9 31 8.9 SE 20 28 11 15 1024.0 1020.9 0.0
24/04:30pm 21.8 16.7 3.9 31 8.9 SE 20 32 11 17 1024.1 1021.0 0.0
24/04:00pm 21.9 16.7 3.6 30 9.1 SSE 20 30 11 16 1024.1 1021.0 0.0
24/03:30pm 22.3 17.4 3.9 30 9.2 SE 19 28 10 15 1024.3 1021.3 0.0
24/03:00pm 22.3 17.4 3.9 30 9.2 ESE 19 26 10 14 1024.2 1021.2 0.0
24/02:30pm 22.0 17.0 3.6 30 9.1 SE 19 24 10 13 1024.4 1021.4 0.0
24/02:00pm 21.2 16.2 3.4 31 8.8 SE 19 32 10 17 1024.8 1021.7 0.0
24/01:30pm 21.2 16.3 3.9 32 8.6 SE 19 30 10 16 1025.2 1022.1 0.0
24/01:00pm 19.3 14.1 3.5 35 7.7 SSE 20 28 11 15 1025.7 1022.7 0.0
24/12:30pm 18.9 14.0 3.9 37 7.3 SE 19 30 10 16 1026.2 1023.1 0.0
24/12:00pm 18.1 13.2 4.3 40 6.8 SE 19 28 10 15 1026.8 1023.8 0.0
24/11:30am 16.5 11.5 3.6 42 6.2 SE 19 30 10 16 1027.3 1024.3 0.0
24/11:00am 16.3 11.9 4.7 46 5.7 SSE 17 26 9 14 1027.6 1024.5 0.0
24/10:30am 14.5 10.1 4.5 51 4.8 SSE 17 26 9 14 1028.0 1025.0 0.0
24/10:00am 13.8 10.1 4.7 54 4.4 S 13 22 7 12 1027.9 1024.8 0.0
24/09:30am 13.3 8.6 5.0 57 4.0 S 19 26 10 14 1027.8 1024.7 0.0
24/09:00am 12.2 7.9 5.1 62 3.4 S 17 22 9 12 1027.9 1024.8 0.0
24/08:30am 11.9 7.8 6.2 68 2.8 S 17 26 9 14 1027.4 1024.4 0.0
24/08:00am 11.4 7.3 6.1 70 2.6 S 17 26 9 14 1026.9 1023.9 0.0
24/07:30am 11.3 5.9 6.2 71 2.5 S 24 32 13 17 1026.4 1023.3 0.0
24/07:00am 11.4 6.9 7.1 75 2.1 S 20 33 11 18 1026.4 1023.3 0.0
24/06:30am 11.6 6.5 7.7 77 2.0 S 24 35 13 19 1025.7 1022.7 0.0
24/06:00am 12.0 8.3 7.9 76 2.1 SSE 17 28 9 15 1025.3 1022.2 0.0
24/05:30am 12.9 9.1 9.0 77 2.0 SSE 19 26 10 14 1024.8 1021.7 0.0
24/05:00am 13.2 8.8 9.1 76 2.2 SSE 22 30 12 16 1024.7 1021.6 0.0
24/04:30am 13.7 10.4 9.4 75 2.3 SSE 17 32 9 17 1024.4 1021.4 0.0
24/04:00am 14.0 10.1 9.6 75 2.3 SSE 20 28 11 15 1024.3 1021.3 0.0
24/03:30am 14.2 10.5 9.6 74 2.4 S 19 32 10 17 1024.0 1020.9 0.0
24/03:00am 14.8 10.2 9.8 72 2.7 SSE 24 35 13 19 1023.7 1020.6 0.0
24/02:38am 15.2 8.9 9.8 70 2.9 SSE 33 52 18 28 1023.1 1020.0 0.0
24/02:30am 15.3 8.3 9.9 70 2.9 SSE 37 48 20 26 1023.0 1019.9 0.0
24/02:00am 16.2 8.7 9.6 65 3.6 SSE 39 50 21 27 1023.1 1020.0 0.0
24/01:30am 17.1 10.9 9.3 60 4.2 SSE 32 48 17 26 1023.1 1020.0 0.0
24/01:00am 17.9 11.3 8.7 55 4.9 SSE 33 44 18 24 1023.1 1020.0 0.0
24/12:30am 18.5 11.8 8.2 51 5.5 SSE 33 48 18 26 1023.1 1020.0 0.0
24/12:00am 19.2 13.0 6.3 43 6.6 SSE 28 37 15 20 1023.1 1020.0 0.0
 
Date/Time
CST
Temp
°C
App
Temp
°C
Dew
Point
°C
Rel
Hum
%
Delta-T
°C
Wind Press
QNH
hPa
Press
MSL
hPa
Rain since
9am
mm
Dir  Spd
km/h
Gust
km/h
Spd
kts
Gust
kts
23/11:30pm 19.9 13.9 5.2 38 7.4 SSE 26 35 14 19 1023.2 1020.1 0.0
23/11:00pm 20.6 16.5 4.2 34 8.2 SE 15 22 8 12 1023.0 1019.9 0.0
23/10:30pm 21.1 17.0 4.6 34 8.3 SE 15 20 8 11 1022.8 1019.7 0.0
23/10:00pm 21.1 17.4 4.6 34 8.3 SE 13 19 7 10 1022.8 1019.7 0.0
23/09:30pm 20.8 17.1 4.4 34 8.2 ESE 13 17 7 9 1022.6 1019.5 0.0
23/09:00pm 21.7 18.4 4.7 33 8.6 SE 11 15 6 8 1022.6 1019.5 0.0
23/08:30pm 22.2 18.6 5.2 33 8.7 ESE 13 19 7 10 1022.2 1019.1 0.0
23/08:00pm 22.3 18.7 4.8 32 9.0 SE 13 20 7 11 1021.9 1018.8 0.0
23/07:30pm 22.9 18.9 4.9 31 9.2 SE 15 22 8 12 1021.7 1018.6 0.0
23/07:00pm 23.3 18.6 5.2 31 9.4 SSE 19 24 10 13 1021.2 1018.1 0.0
23/06:30pm 23.8 18.9 5.2 30 9.7 SSE 20 32 11 17 1020.9 1017.8 0.0
23/06:00pm 24.4 19.6 4.7 28 10.2 SE 19 35 10 19 1020.7 1017.6 0.0
23/05:30pm 25.1 20.2 4.3 26 10.7 SE 19 32 10 17 1020.3 1017.1 0.0
23/05:00pm 25.6 20.9 5.2 27 10.7 SSE 19 26 10 14 1020.1 1016.9 0.0
23/04:30pm 25.7 20.1 5.3 27 10.7 SE 24 33 13 18 1020.0 1016.8 0.0
23/04:00pm 26.3 21.5 5.8 27 10.9 ESE 20 33 11 18 1020.2 1017.0 0.0
23/03:30pm 26.0 21.3 6.1 28 10.6 SSE 20 33 11 18 1020.3 1017.1 0.0
23/03:00pm 26.3 21.9 6.4 28 10.7 SE 19 26 10 14 1020.3 1017.1 0.0
23/02:30pm 25.6 20.7 6.8 30 10.1 SSE 22 33 12 18 1020.5 1017.4 0.0
23/02:00pm 25.7 21.2 6.3 29 10.4 SSE 19 32 10 17 1020.9 1017.8 0.0
23/01:30pm 24.5 20.9 6.7 32 9.5 SSE 15 22 8 12 1021.5 1018.3 0.0
23/01:00pm 24.9 21.2 8.0 34 9.3 SSE 17 26 9 14 1022.0 1018.9 0.0
23/12:30pm 25.0 21.7 8.1 34 9.3 SE 15 30 8 16 1022.5 1019.4 0.0
23/12:00pm 24.3 21.1 8.3 36 8.8 ESE 15 24 8 13 1022.8 1019.7 0.0
23/11:30am 23.3 20.5 8.6 39 8.1 SE 13 22 7 12 1023.1 1020.0 0.0
23/11:00am 23.6 21.0 9.2 40 8.0 E 13 28 7 15 1023.3 1020.2 0.0
23/10:30am 22.3 19.4 9.5 44 7.1 ESE 15 22 8 12 1023.3 1020.2 0.0
23/10:00am 22.3 19.4 9.8 45 7.0 ENE 15 20 8 11 1023.1 1020.0 0.0
23/09:30am 21.4 18.6 9.9 48 6.4 NE 15 22 8 12 1023.1 1020.0 0.0
23/09:00am 20.3 18.2 9.8 51 5.8 ENE 11 17 6 9 1023.0 1019.9 0.0
23/08:30am 19.2 18.1 9.9 55 5.1 ENE 6 9 3 5 1022.8 1019.7 0.0
23/08:00am 15.3 15.1 9.0 66 3.3 CALM 0 0 0 0 1022.7 1019.6 0.0
23/07:30am 11.1 10.4 6.8 75 2.1 CALM 0 0 0 0 1022.4 1019.3 0.0
23/07:00am 12.1 11.2 6.2 67 2.9 CALM 0 0 0 0 1022.1 1019.0 0.0
23/06:30am 12.2 11.4 6.5 68 2.8 CALM 0 0 0 0 1021.9 1018.8 0.0
23/06:00am 12.5 11.8 6.8 68 2.8 CALM 0 0 0 0 1021.5 1018.3 0.0
23/05:30am 13.9 13.4 7.7 66 3.2 CALM 0 0 0 0 1021.5 1018.3 0.0
23/05:00am 13.9 13.2 7.0 63 3.5 CALM 0 0 0 0 1021.1 1018.0 0.0
23/04:30am 13.3 12.1 6.6 64 3.3 ENE 2 7 1 4 1020.9 1017.8 0.0
23/04:00am 12.4 11.4 5.6 63 3.3 CALM 0 2 0 1 1020.8 1017.7 0.0
23/03:30am 14.3 12.3 6.2 58 4.0 ENE 6 7 3 4 1020.8 1017.7 0.0
23/03:00am 14.2 12.2 6.1 58 4.0 ENE 6 7 3 4 1020.7 1017.6 0.0
23/02:30am 13.9 11.1 5.3 56 4.2 ENE 9 9 5 5 1020.9 1017.8 0.0
23/02:00am 14.1 11.5 6.0 58 4.0 E 9 9 5 5 1021.0 1017.9 0.0
23/01:30am 14.3 12.0 5.7 56 4.2 E 7 9 4 5 1021.3 1018.2 0.0
23/01:00am 14.4 12.3 5.7 56 4.3 NNE 6 6 3 3 1021.5 1018.3 0.0
23/12:30am 14.0 11.8 5.4 56 4.2 NNE 6 9 3 5 1021.5 1018.3 0.0
23/12:00am 14.0 11.6 5.1 55 4.3 NE 7 7 4 4 1021.3 1018.2 0.0
 
Date/Time
CST
Temp
°C
App
Temp
°C
Dew
Point
°C
Rel
Hum
%
Delta-T
°C
Wind Press
QNH
hPa
Press
MSL
hPa
Rain since
9am
mm
Dir  Spd
km/h
Gust
km/h
Spd
kts
Gust
kts
22/11:30pm 15.0 12.6 5.2 52 4.8 ENE 7 9 4 5 1021.3 1018.2 0.0
22/11:00pm 15.4 12.2 5.3 51 5.0 E 11 13 6 7 1021.5 1018.3 0.0
22/10:30pm 14.7 11.8 4.7 51 4.8 ENE 9 9 5 5 1021.8 1018.7 0.0
22/10:00pm 16.5 13.7 5.2 47 5.6 E 9 11 5 6 1021.9 1018.8 0.0
22/09:30pm 16.7 13.2 5.3 47 5.7 E 13 15 7 8 1021.8 1018.7 0.0
22/09:00pm 16.7 13.4 4.7 45 5.9 ENE 11 15 6 8 1021.6 1018.4 0.0
22/08:30pm 17.3 14.0 4.6 43 6.2 ENE 11 13 6 7 1021.2 1018.1 0.0
22/08:00pm 17.8 14.4 4.0 40 6.7 ENE 11 13 6 7 1020.9 1017.8 0.0
22/07:30pm 18.7 15.2 3.7 37 7.3 E 11 13 6 7 1020.6 1017.5 0.0
22/07:00pm 20.5 18.0 4.5 35 8.0 ENE 7 11 4 6 1020.4 1017.3 0.0
22/06:30pm 22.1 18.1 4.7 32 8.9 ENE 15 20 8 11 1019.5 1016.4 0.0
22/06:00pm 23.5 19.4 4.5 29 9.7 ENE 15 20 8 11 1019.3 1016.2 0.0
22/05:30pm 24.5 20.0 4.3 27 10.4 ENE 17 26 9 14 1019.1 1016.0 0.0
22/05:00pm 25.1 19.7 4.3 26 10.7 ENE 22 32 12 17 1019.0 1015.8 0.0
22/04:30pm 25.2 19.9 4.9 27 10.6 ENE 22 35 12 19 1019.0 1015.8 0.0
22/04:00pm 25.3 20.5 5.5 28 10.4 E 20 35 11 19 1019.2 1016.1 0.0
22/03:30pm 25.1 19.9 5.3 28 10.4 E 22 33 12 18 1019.5 1016.4 0.0
22/03:00pm 25.0 19.7 5.2 28 10.4 ENE 22 32 12 17 1019.8 1016.7 0.0
22/02:30pm 25.2 20.1 5.9 29 10.2 E 22 37 12 20 1020.1 1016.9 0.0
22/02:00pm 24.8 19.2 5.6 29 10.1 ENE 24 33 13 18 1020.3 1017.1 0.0
22/01:30pm 25.3 19.4 6.0 29 10.2 ENE 26 35 14 19 1020.6 1017.5 0.0
22/01:00pm 24.1 19.5 6.4 32 9.4 NE 20 32 11 17 1021.3 1018.2 0.0
22/12:30pm 23.5 17.8 6.7 34 8.9 ENE 26 35 14 19 1021.9 1018.8 0.0
22/12:00pm 23.2 18.3 6.9 35 8.7 NE 22 35 12 19 1022.6 1019.5 0.0

Other formats

Comma delimited format used in spreadsheet applications
http://www.bom.gov.au/fwo/IDS60801/IDS60801.94474.axf

JavaScript Object Notation format (JSON) in row-major order
http://www.bom.gov.au/fwo/IDS60801/IDS60801.94474.json

Data quality

Most of these data are generated automatically and are frequently updated. Quality checks on data are not normally performed. It is possible for incorrect values to appear. Refer to information at About Latest Weather Observations and please check the disclaimer before using these data.